sensor_id;sensor_type;location;lat;lon;timestamp;pressure;altitude;pressure_sealevel;temperature;humidity
48892;BME280;50130;52.150;5.236;2022-12-29T00:01:35;99726.0;;;12.15;97.47
48892;BME280;50130;52.150;5.236;2022-12-29T00:03:12;99715.0;;;12.16;97.58
48892;BME280;50130;52.150;5.236;2022-12-29T00:06:26;99728.0;;;12.24;96.68
48892;BME280;50130;52.150;5.236;2022-12-29T00:08:03;99726.0;;;12.26;96.13
48892;BME280;50130;52.150;5.236;2022-12-29T00:09:39;99719.0;;;12.32;95.75
48892;BME280;50130;52.150;5.236;2022-12-29T00:12:55;99714.0;;;12.33;95.34
48892;BME280;50130;52.150;5.236;2022-12-29T00:14:32;99715.0;;;12.42;94.85
48892;BME280;50130;52.150;5.236;2022-12-29T00:16:08;99707.0;;;12.35;94.44
48892;BME280;50130;52.150;5.236;2022-12-29T00:17:44;99708.0;;;12.4;94.34
48892;BME280;50130;52.150;5.236;2022-12-29T00:20:56;99705.0;;;12.43;94.17
48892;BME280;50130;52.150;5.236;2022-12-29T00:22:33;99696.0;;;12.43;94.11
48892;BME280;50130;52.150;5.236;2022-12-29T00:24:13;99696.0;;;12.42;93.8
48892;BME280;50130;52.150;5.236;2022-12-29T00:27:27;99695.0;;;12.49;93.5
48892;BME280;50130;52.150;5.236;2022-12-29T00:29:03;99699.0;;;12.5;93.83
48892;BME280;50130;52.150;5.236;2022-12-29T00:30:39;99694.0;;;12.52;92.91
48892;BME280;50130;52.150;5.236;2022-12-29T00:32:16;99692.0;;;12.58;93.43
48892;BME280;50130;52.150;5.236;2022-12-29T00:35:31;99690.0;;;12.56;92.8
48892;BME280;50130;52.150;5.236;2022-12-29T00:37:12;99683.0;;;12.57;92.72
48892;BME280;50130;52.150;5.236;2022-12-29T00:38:52;99683.0;;;12.55;92.85
48892;BME280;50130;52.150;5.236;2022-12-29T00:42:08;99682.0;;;12.45;93.23
48892;BME280;50130;52.150;5.236;2022-12-29T00:43:45;99672.0;;;12.58;92.8
48892;BME280;50130;52.150;5.236;2022-12-29T00:45:21;99674.0;;;12.6;93.01
48892;BME280;50130;52.150;5.236;2022-12-29T00:46:57;99672.0;;;12.48;92.95
48892;BME280;50130;52.150;5.236;2022-12-29T00:50:10;99663.0;;;12.49;92.62
48892;BME280;50130;52.150;5.236;2022-12-29T00:51:46;99657.0;;;12.53;92.35
48892;BME280;50130;52.150;5.236;2022-12-29T00:53:23;99652.0;;;12.63;92.38
48892;BME280;50130;52.150;5.236;2022-12-29T00:56:35;99641.0;;;12.63;92.17
48892;BME280;50130;52.150;5.236;2022-12-29T00:58:13;99647.0;;;12.58;92.27
48892;BME280;50130;52.150;5.236;2022-12-29T00:59:49;99640.0;;;12.66;91.34
48892;BME280;50130;52.150;5.236;2022-12-29T01:03:02;99643.0;;;12.7;91.23
48892;BME280;50130;52.150;5.236;2022-12-29T01:06:14;99637.0;;;12.58;91.75
48892;BME280;50130;52.150;5.236;2022-12-29T01:07:51;99631.0;;;12.74;92.09
48892;BME280;50130;52.150;5.236;2022-12-29T01:11:04;99636.0;;;12.65;92.16
48892;BME280;50130;52.150;5.236;2022-12-29T01:12:42;99635.0;;;12.54;92.61
48892;BME280;50130;52.150;5.236;2022-12-29T01:14:19;99632.0;;;12.45;93.26
48892;BME280;50130;52.150;5.236;2022-12-29T01:17:33;99634.0;;;12.43;94.21
48892;BME280;50130;52.150;5.236;2022-12-29T01:19:10;99636.0;;;12.44;94.55
48892;BME280;50130;52.150;5.236;2022-12-29T01:20:47;99636.0;;;12.33;95.74
48892;BME280;50130;52.150;5.236;2022-12-29T01:24:00;99622.0;;;12.33;96.57
48892;BME280;50130;52.150;5.236;2022-12-29T01:25:37;99631.0;;;12.25;97.91
48892;BME280;50130;52.150;5.236;2022-12-29T01:27:14;99631.0;;;12.09;99.04
48892;BME280;50130;52.150;5.236;2022-12-29T01:28:50;99645.0;;;12.11;99.34
48892;BME280;50130;52.150;5.236;2022-12-29T01:32:03;99645.0;;;12.15;99.45
48892;BME280;50130;52.150;5.236;2022-12-29T01:33:40;99639.0;;;12.08;99.62
48892;BME280;50130;52.150;5.236;2022-12-29T01:35:18;99637.0;;;11.99;100.0
48892;BME280;50130;52.150;5.236;2022-12-29T01:38:31;99634.0;;;11.94;100.0
48892;BME280;50130;52.150;5.236;2022-12-29T01:40:09;99642.0;;;11.98;100.0
48892;BME280;50130;52.150;5.236;2022-12-29T01:41:46;99641.0;;;11.82;100.0
48892;BME280;50130;52.150;5.236;2022-12-29T01:43:39;99640.0;;;11.84;100.0
48892;BME280;50130;52.150;5.236;2022-12-29T01:46:53;99642.0;;;11.86;100.0
48892;BME280;50130;52.150;5.236;2022-12-29T01:48:30;99643.0;;;11.9;100.0
48892;BME280;50130;52.150;5.236;2022-12-29T01:50:10;99634.0;;;11.84;100.0
48892;BME280;50130;52.150;5.236;2022-12-29T01:51:53;99645.0;;;11.89;100.0
48892;BME280;50130;52.150;5.236;2022-12-29T01:55:12;99639.0;;;11.9;100.0
48892;BME280;50130;52.150;5.236;2022-12-29T01:56:50;99642.0;;;11.9;100.0
48892;BME280;50130;52.150;5.236;2022-12-29T01:58:30;99630.0;;;11.9;100.0
48892;BME280;50130;52.150;5.236;2022-12-29T02:00:11;99627.0;;;11.83;100.0
48892;BME280;50130;52.150;5.236;2022-12-29T02:03:27;99643.0;;;11.86;100.0
48892;BME280;50130;52.150;5.236;2022-12-29T02:05:11;99630.0;;;11.87;100.0
48892;BME280;50130;52.150;5.236;2022-12-29T02:06:53;99637.0;;;11.86;100.0
48892;BME280;50130;52.150;5.236;2022-12-29T02:08:32;99631.0;;;11.84;100.0
48892;BME280;50130;52.150;5.236;2022-12-29T02:11:45;99644.0;;;11.76;100.0
48892;BME280;50130;52.150;5.236;2022-12-29T02:13:23;99647.0;;;11.8;100.0
48892;BME280;50130;52.150;5.236;2022-12-29T02:15:02;99650.0;;;11.8;100.0
48892;BME280;50130;52.150;5.236;2022-12-29T02:18:41;99651.0;;;11.81;100.0
48892;BME280;50130;52.150;5.236;2022-12-29T02:20:42;99647.0;;;11.83;100.0
48892;BME280;50130;52.150;5.236;2022-12-29T02:24:21;99643.0;;;11.9;100.0
48892;BME280;50130;52.150;5.236;2022-12-29T02:27:40;99643.0;;;11.98;100.0
48892;BME280;50130;52.150;5.236;2022-12-29T02:30:58;99639.0;;;11.91;99.97
48892;BME280;50130;52.150;5.236;2022-12-29T02:32:46;99651.0;;;11.94;99.21
48892;BME280;50130;52.150;5.236;2022-12-29T02:34:37;99646.0;;;11.87;99.51
48892;BME280;50130;52.150;5.236;2022-12-29T02:36:23;99640.0;;;11.9;99.48
48892;BME280;50130;52.150;5.236;2022-12-29T02:38:13;99628.0;;;11.94;98.69
48892;BME280;50130;52.150;5.236;2022-12-29T02:40:01;99627.0;;;11.96;98.52
48892;BME280;50130;52.150;5.236;2022-12-29T02:43:44;99622.0;;;12.02;97.78
48892;BME280;50130;52.150;5.236;2022-12-29T02:45:34;99611.0;;;11.98;97.73
48892;BME280;50130;52.150;5.236;2022-12-29T02:47:19;99622.0;;;11.95;97.14
48892;BME280;50130;52.150;5.236;2022-12-29T02:49:05;99625.0;;;12.04;97.03
48892;BME280;50130;52.150;5.236;2022-12-29T02:50:53;99626.0;;;12.06;97.22
48892;BME280;50130;52.150;5.236;2022-12-29T02:52:35;99621.0;;;11.84;97.24
48892;BME280;50130;52.150;5.236;2022-12-29T02:55:53;99627.0;;;11.89;96.86
48892;BME280;50130;52.150;5.236;2022-12-29T02:57:32;99627.0;;;11.82;96.72
48892;BME280;50130;52.150;5.236;2022-12-29T02:59:09;99633.0;;;11.81;95.57
48892;BME280;50130;52.150;5.236;2022-12-29T03:00:58;99632.0;;;11.75;95.31
48892;BME280;50130;52.150;5.236;2022-12-29T03:05:14;99624.0;;;11.79;95.2
48892;BME280;50130;52.150;5.236;2022-12-29T03:06:56;99639.0;;;11.79;95.09
48892;BME280;50130;52.150;5.236;2022-12-29T03:08:44;99634.0;;;11.72;94.43
48892;BME280;50130;52.150;5.236;2022-12-29T03:10:31;99621.0;;;11.74;94.97
48892;BME280;50130;52.150;5.236;2022-12-29T03:12:24;99635.0;;;11.78;94.65
48892;BME280;50130;52.150;5.236;2022-12-29T03:14:08;99633.0;;;11.81;94.02
48892;BME280;50130;52.150;5.236;2022-12-29T03:15:59;99626.0;;;11.58;94.28
48892;BME280;50130;52.150;5.236;2022-12-29T03:17:46;99627.0;;;11.64;94.25
48892;BME280;50130;52.150;5.236;2022-12-29T03:21:11;99627.0;;;11.64;94.17
48892;BME280;50130;52.150;5.236;2022-12-29T03:22:51;99619.0;;;11.66;93.99
48892;BME280;50130;52.150;5.236;2022-12-29T03:24:36;99632.0;;;11.71;93.94
48892;BME280;50130;52.150;5.236;2022-12-29T03:26:26;99610.0;;;11.68;93.47
48892;BME280;50130;52.150;5.236;2022-12-29T03:28:06;99617.0;;;11.56;94.11
48892;BME280;50130;52.150;5.236;2022-12-29T03:31:26;99617.0;;;11.62;93.76
48892;BME280;50130;52.150;5.236;2022-12-29T03:33:06;99615.0;;;11.62;93.58
48892;BME280;50130;52.150;5.236;2022-12-29T03:34:46;99621.0;;;11.56;94.18
48892;BME280;50130;52.150;5.236;2022-12-29T03:36:29;99609.0;;;11.44;94.49
48892;BME280;50130;52.150;5.236;2022-12-29T03:39:54;99626.0;;;11.54;94.16
48892;BME280;50130;52.150;5.236;2022-12-29T03:41:32;99620.0;;;11.53;94.17
48892;BME280;50130;52.150;5.236;2022-12-29T03:43:11;99609.0;;;11.48;94.58
48892;BME280;50130;52.150;5.236;2022-12-29T03:44:48;99611.0;;;11.52;94.48
48892;BME280;50130;52.150;5.236;2022-12-29T03:48:06;99605.0;;;11.57;94.16
48892;BME280;50130;52.150;5.236;2022-12-29T03:49:42;99613.0;;;11.66;93.51
48892;BME280;50130;52.150;5.236;2022-12-29T03:51:20;99610.0;;;11.6;93.59
48892;BME280;50130;52.150;5.236;2022-12-29T03:54:35;99607.0;;;11.58;94.28
48892;BME280;50130;52.150;5.236;2022-12-29T03:56:11;99596.0;;;11.6;93.82
48892;BME280;50130;52.150;5.236;2022-12-29T03:59:24;99608.0;;;11.52;94.03
48892;BME280;50130;52.150;5.236;2022-12-29T04:02:36;99608.0;;;11.64;93.74
48892;BME280;50130;52.150;5.236;2022-12-29T04:04:12;99598.0;;;11.74;93.19
48892;BME280;50130;52.150;5.236;2022-12-29T04:05:49;99599.0;;;11.67;93.0
48892;BME280;50130;52.150;5.236;2022-12-29T04:09:02;99597.0;;;11.69;93.27
48892;BME280;50130;52.150;5.236;2022-12-29T04:10:39;99605.0;;;11.59;93.35
48892;BME280;50130;52.150;5.236;2022-12-29T04:12:16;99605.0;;;11.69;92.87
48892;BME280;50130;52.150;5.236;2022-12-29T04:15:29;99625.0;;;11.76;92.67
48892;BME280;50130;52.150;5.236;2022-12-29T04:17:05;99633.0;;;11.62;92.97
48892;BME280;50130;52.150;5.236;2022-12-29T04:18:42;99636.0;;;11.6;93.4
48892;BME280;50130;52.150;5.236;2022-12-29T04:20:19;99634.0;;;11.58;93.65
48892;BME280;50130;52.150;5.236;2022-12-29T04:25:11;99638.0;;;11.72;92.69
48892;BME280;50130;52.150;5.236;2022-12-29T04:26:47;99638.0;;;11.7;92.85
48892;BME280;50130;52.150;5.236;2022-12-29T04:30:00;99627.0;;;11.52;93.06
48892;BME280;50130;52.150;5.236;2022-12-29T04:31:36;99630.0;;;11.52;93.1
48892;BME280;50130;52.150;5.236;2022-12-29T04:33:13;99643.0;;;11.52;92.42
48892;BME280;50130;52.150;5.236;2022-12-29T04:36:26;99643.0;;;11.49;91.6
48892;BME280;50130;52.150;5.236;2022-12-29T04:38:03;99637.0;;;11.56;91.96
48892;BME280;50130;52.150;5.236;2022-12-29T04:39:39;99644.0;;;11.48;92.71
48892;BME280;50130;52.150;5.236;2022-12-29T04:41:15;99647.0;;;11.47;91.22
48892;BME280;50130;52.150;5.236;2022-12-29T04:44:28;99645.0;;;11.52;91.32
48892;BME280;50130;52.150;5.236;2022-12-29T04:46:04;99655.0;;;11.43;89.62
48892;BME280;50130;52.150;5.236;2022-12-29T04:47:41;99663.0;;;11.49;89.56
48892;BME280;50130;52.150;5.236;2022-12-29T04:50:53;99660.0;;;11.48;88.77
48892;BME280;50130;52.150;5.236;2022-12-29T04:52:30;99652.0;;;11.55;88.54
48892;BME280;50130;52.150;5.236;2022-12-29T04:54:07;99656.0;;;11.49;89.0
48892;BME280;50130;52.150;5.236;2022-12-29T04:57:25;99657.0;;;11.48;89.61
48892;BME280;50130;52.150;5.236;2022-12-29T04:59:02;99656.0;;;11.39;89.82
48892;BME280;50130;52.150;5.236;2022-12-29T05:00:38;99661.0;;;11.28;90.34
48892;BME280;50130;52.150;5.236;2022-12-29T05:02:14;99653.0;;;11.26;90.34
48892;BME280;50130;52.150;5.236;2022-12-29T05:05:27;99660.0;;;11.31;90.75
48892;BME280;50130;52.150;5.236;2022-12-29T05:07:04;99664.0;;;11.2;91.56
48892;BME280;50130;52.150;5.236;2022-12-29T05:08:41;99659.0;;;11.32;90.56
48892;BME280;50130;52.150;5.236;2022-12-29T05:11:54;99681.0;;;11.3;90.73
48892;BME280;50130;52.150;5.236;2022-12-29T05:13:30;99672.0;;;11.16;90.21
48892;BME280;50130;52.150;5.236;2022-12-29T05:15:08;99670.0;;;11.3;89.94
48892;BME280;50130;52.150;5.236;2022-12-29T05:16:45;99675.0;;;11.36;89.71
48892;BME280;50130;52.150;5.236;2022-12-29T05:19:58;99677.0;;;11.35;89.42
48892;BME280;50130;52.150;5.236;2022-12-29T05:21:35;99688.0;;;11.39;89.42
48892;BME280;50130;52.150;5.236;2022-12-29T05:23:13;99684.0;;;11.32;89.81
48892;BME280;50130;52.150;5.236;2022-12-29T05:26:25;99694.0;;;11.4;89.48
48892;BME280;50130;52.150;5.236;2022-12-29T05:28:02;99689.0;;;11.33;90.45
48892;BME280;50130;52.150;5.236;2022-12-29T05:29:39;99674.0;;;11.32;91.63
48892;BME280;50130;52.150;5.236;2022-12-29T05:32:51;99684.0;;;11.21;92.8
48892;BME280;50130;52.150;5.236;2022-12-29T05:34:28;99684.0;;;11.13;92.85
48892;BME280;50130;52.150;5.236;2022-12-29T05:36:07;99689.0;;;11.09;93.69
48892;BME280;50130;52.150;5.236;2022-12-29T05:37:44;99674.0;;;11.06;94.45
48892;BME280;50130;52.150;5.236;2022-12-29T05:40:57;99675.0;;;10.97;94.7
48892;BME280;50130;52.150;5.236;2022-12-29T05:42:33;99680.0;;;10.92;95.61
48892;BME280;50130;52.150;5.236;2022-12-29T05:44:10;99683.0;;;10.99;95.39
48892;BME280;50130;52.150;5.236;2022-12-29T05:47:25;99680.0;;;10.96;95.01
48892;BME280;50130;52.150;5.236;2022-12-29T05:49:01;99688.0;;;10.92;95.62
48892;BME280;50130;52.150;5.236;2022-12-29T05:50:37;99688.0;;;10.95;95.05
48892;BME280;50130;52.150;5.236;2022-12-29T05:53:49;99697.0;;;10.94;95.03
48892;BME280;50130;52.150;5.236;2022-12-29T05:57:03;99703.0;;;10.83;96.12
48892;BME280;50130;52.150;5.236;2022-12-29T06:00:16;99709.0;;;10.74;96.2
48892;BME280;50130;52.150;5.236;2022-12-29T06:01:52;99706.0;;;10.8;95.96
48892;BME280;50130;52.150;5.236;2022-12-29T06:03:28;99730.0;;;10.84;95.16
48892;BME280;50130;52.150;5.236;2022-12-29T06:05:05;99691.0;;;10.83;95.57
48892;BME280;50130;52.150;5.236;2022-12-29T06:08:19;99705.0;;;10.75;95.65
48892;BME280;50130;52.150;5.236;2022-12-29T06:09:55;99710.0;;;10.73;96.87
48892;BME280;50130;52.150;5.236;2022-12-29T06:11:32;99713.0;;;10.67;96.29
48892;BME280;50130;52.150;5.236;2022-12-29T06:14:45;99717.0;;;10.68;95.97
48892;BME280;50130;52.150;5.236;2022-12-29T06:16:22;99709.0;;;10.67;96.9
48892;BME280;50130;52.150;5.236;2022-12-29T06:19:36;99713.0;;;10.79;94.73
48892;BME280;50130;52.150;5.236;2022-12-29T06:22:48;99715.0;;;10.83;94.74
48892;BME280;50130;52.150;5.236;2022-12-29T06:24:25;99725.0;;;10.68;95.55
48892;BME280;50130;52.150;5.236;2022-12-29T06:26:02;99719.0;;;10.71;95.09
48892;BME280;50130;52.150;5.236;2022-12-29T06:29:17;99737.0;;;10.6;95.87
48892;BME280;50130;52.150;5.236;2022-12-29T06:30:53;99738.0;;;10.64;96.3
48892;BME280;50130;52.150;5.236;2022-12-29T06:32:29;99725.0;;;10.61;96.39
48892;BME280;50130;52.150;5.236;2022-12-29T06:35:43;99730.0;;;10.56;96.52
48892;BME280;50130;52.150;5.236;2022-12-29T06:37:20;99731.0;;;10.55;97.06
48892;BME280;50130;52.150;5.236;2022-12-29T06:38:56;99723.0;;;10.43;97.48
48892;BME280;50130;52.150;5.236;2022-12-29T06:40:34;99733.0;;;10.49;96.92
48892;BME280;50130;52.150;5.236;2022-12-29T06:43:46;99738.0;;;10.36;96.89
48892;BME280;50130;52.150;5.236;2022-12-29T06:45:23;99730.0;;;10.45;96.6
48892;BME280;50130;52.150;5.236;2022-12-29T06:47:00;99730.0;;;10.45;96.91
48892;BME280;50130;52.150;5.236;2022-12-29T06:50:13;99727.0;;;10.44;95.31
48892;BME280;50130;52.150;5.236;2022-12-29T06:51:50;99727.0;;;10.49;94.98
48892;BME280;50130;52.150;5.236;2022-12-29T06:53:28;99725.0;;;10.52;94.2
48892;BME280;50130;52.150;5.236;2022-12-29T06:55:05;99730.0;;;10.55;93.22
48892;BME280;50130;52.150;5.236;2022-12-29T06:58:20;99712.0;;;10.6;93.19
48892;BME280;50130;52.150;5.236;2022-12-29T06:59:56;99723.0;;;10.61;92.73
48892;BME280;50130;52.150;5.236;2022-12-29T07:01:32;99734.0;;;10.67;92.45
48892;BME280;50130;52.150;5.236;2022-12-29T07:04:46;99721.0;;;10.58;91.95
48892;BME280;50130;52.150;5.236;2022-12-29T07:06:22;99728.0;;;10.56;91.23
48892;BME280;50130;52.150;5.236;2022-12-29T07:07:59;99734.0;;;10.68;91.39
48892;BME280;50130;52.150;5.236;2022-12-29T07:11:12;99741.0;;;10.46;90.24
48892;BME280;50130;52.150;5.236;2022-12-29T07:12:49;99741.0;;;10.47;91.17
48892;BME280;50130;52.150;5.236;2022-12-29T07:14:26;99730.0;;;10.52;90.53
48892;BME280;50130;52.150;5.236;2022-12-29T07:16:05;99744.0;;;10.52;90.64
48892;BME280;50130;52.150;5.236;2022-12-29T07:19:19;99751.0;;;10.46;91.14
48892;BME280;50130;52.150;5.236;2022-12-29T07:20:56;99733.0;;;10.35;92.3
48892;BME280;50130;52.150;5.236;2022-12-29T07:22:32;99733.0;;;10.28;91.47
48892;BME280;50130;52.150;5.236;2022-12-29T07:25:45;99749.0;;;10.3;91.24
48892;BME280;50130;52.150;5.236;2022-12-29T07:27:21;99756.0;;;10.36;91.25
48892;BME280;50130;52.150;5.236;2022-12-29T07:29:00;99755.0;;;10.31;91.43
48892;BME280;50130;52.150;5.236;2022-12-29T07:32:14;99758.0;;;10.4;91.21
48892;BME280;50130;52.150;5.236;2022-12-29T07:33:50;99755.0;;;10.42;91.44
48892;BME280;50130;52.150;5.236;2022-12-29T07:35:27;99772.0;;;10.29;91.38
48892;BME280;50130;52.150;5.236;2022-12-29T07:37:04;99771.0;;;10.31;91.51
48892;BME280;50130;52.150;5.236;2022-12-29T07:40:19;99764.0;;;10.36;91.98
48892;BME280;50130;52.150;5.236;2022-12-29T07:41:56;99742.0;;;10.33;91.66
48892;BME280;50130;52.150;5.236;2022-12-29T07:43:33;99763.0;;;10.39;91.66
48892;BME280;50130;52.150;5.236;2022-12-29T07:46:47;99766.0;;;10.46;91.84
48892;BME280;50130;52.150;5.236;2022-12-29T07:48:23;99758.0;;;10.47;91.7
48892;BME280;50130;52.150;5.236;2022-12-29T07:49:59;99762.0;;;10.44;91.32
48892;BME280;50130;52.150;5.236;2022-12-29T07:51:36;99755.0;;;10.54;90.61
48892;BME280;50130;52.150;5.236;2022-12-29T07:54:51;99767.0;;;10.52;90.84
48892;BME280;50130;52.150;5.236;2022-12-29T07:56:27;99763.0;;;10.45;90.99
48892;BME280;50130;52.150;5.236;2022-12-29T07:58:04;99765.0;;;10.39;91.09
48892;BME280;50130;52.150;5.236;2022-12-29T08:01:16;99768.0;;;10.4;90.61
48892;BME280;50130;52.150;5.236;2022-12-29T08:02:52;99763.0;;;10.45;90.14
48892;BME280;50130;52.150;5.236;2022-12-29T08:04:29;99761.0;;;10.47;89.98
48892;BME280;50130;52.150;5.236;2022-12-29T08:07:45;99755.0;;;10.56;89.61
48892;BME280;50130;52.150;5.236;2022-12-29T08:09:21;99767.0;;;10.55;89.71
48892;BME280;50130;52.150;5.236;2022-12-29T08:10:58;99768.0;;;10.65;88.94
48892;BME280;50130;52.150;5.236;2022-12-29T08:12:34;99760.0;;;10.63;88.54
48892;BME280;50130;52.150;5.236;2022-12-29T08:15:47;99747.0;;;10.64;88.66
48892;BME280;50130;52.150;5.236;2022-12-29T08:17:23;99755.0;;;10.73;88.04
48892;BME280;50130;52.150;5.236;2022-12-29T08:19:00;99741.0;;;10.71;88.07
48892;BME280;50130;52.150;5.236;2022-12-29T08:22:13;99750.0;;;10.78;87.24
48892;BME280;50130;52.150;5.236;2022-12-29T08:23:49;99755.0;;;10.75;86.46
48892;BME280;50130;52.150;5.236;2022-12-29T08:25:25;99760.0;;;10.78;86.78
48892;BME280;50130;52.150;5.236;2022-12-29T08:28:38;99765.0;;;10.72;86.91
48892;BME280;50130;52.150;5.236;2022-12-29T08:30:14;99760.0;;;10.77;85.6
48892;BME280;50130;52.150;5.236;2022-12-29T08:31:51;99761.0;;;10.79;85.27
48892;BME280;50130;52.150;5.236;2022-12-29T08:33:27;99753.0;;;10.97;85.8
48892;BME280;50130;52.150;5.236;2022-12-29T08:36:42;99749.0;;;10.97;84.71
48892;BME280;50130;52.150;5.236;2022-12-29T08:38:18;99768.0;;;10.92;84.54
48892;BME280;50130;52.150;5.236;2022-12-29T08:39:55;99774.0;;;10.96;84.68
48892;BME280;50130;52.150;5.236;2022-12-29T08:43:07;99765.0;;;10.89;84.92
48892;BME280;50130;52.150;5.236;2022-12-29T08:44:44;99772.0;;;10.92;85.05
48892;BME280;50130;52.150;5.236;2022-12-29T08:46:20;99783.0;;;10.9;86.73
48892;BME280;50130;52.150;5.236;2022-12-29T08:49:33;99780.0;;;10.85;87.03
48892;BME280;50130;52.150;5.236;2022-12-29T08:51:09;99775.0;;;10.86;88.43
48892;BME280;50130;52.150;5.236;2022-12-29T08:52:45;99777.0;;;10.89;88.51
48892;BME280;50130;52.150;5.236;2022-12-29T08:54:22;99785.0;;;10.81;88.03
48892;BME280;50130;52.150;5.236;2022-12-29T08:57:36;99776.0;;;10.81;87.35
48892;BME280;50130;52.150;5.236;2022-12-29T08:59:12;99778.0;;;10.86;88.27
48892;BME280;50130;52.150;5.236;2022-12-29T09:00:52;99783.0;;;10.75;89.23
48892;BME280;50130;52.150;5.236;2022-12-29T09:04:04;99788.0;;;10.69;88.36
48892;BME280;50130;52.150;5.236;2022-12-29T09:05:40;99782.0;;;10.74;88.91
48892;BME280;50130;52.150;5.236;2022-12-29T09:07:16;99781.0;;;10.77;88.89
48892;BME280;50130;52.150;5.236;2022-12-29T09:10:30;99782.0;;;10.65;88.56
48892;BME280;50130;52.150;5.236;2022-12-29T09:12:07;99791.0;;;10.68;88.48
48892;BME280;50130;52.150;5.236;2022-12-29T09:13:43;99797.0;;;10.82;89.23
48892;BME280;50130;52.150;5.236;2022-12-29T09:15:20;99805.0;;;10.83;89.35
48892;BME280;50130;52.150;5.236;2022-12-29T09:18:33;99803.0;;;10.79;88.62
48892;BME280;50130;52.150;5.236;2022-12-29T09:20:10;99805.0;;;10.73;89.36
48892;BME280;50130;52.150;5.236;2022-12-29T09:21:46;99810.0;;;10.73;90.93
48892;BME280;50130;52.150;5.236;2022-12-29T09:25:00;99814.0;;;10.72;91.37
48892;BME280;50130;52.150;5.236;2022-12-29T09:26:36;99828.0;;;10.7;92.32
48892;BME280;50130;52.150;5.236;2022-12-29T09:28:12;99816.0;;;10.59;92.56
48892;BME280;50130;52.150;5.236;2022-12-29T09:31:25;99827.0;;;10.58;94.0
48892;BME280;50130;52.150;5.236;2022-12-29T09:33:02;99851.0;;;10.53;94.76
48892;BME280;50130;52.150;5.236;2022-12-29T09:34:39;99843.0;;;10.49;94.98
48892;BME280;50130;52.150;5.236;2022-12-29T09:36:15;99839.0;;;10.46;95.78
48892;BME280;50130;52.150;5.236;2022-12-29T09:39:28;99849.0;;;10.42;95.13
48892;BME280;50130;52.150;5.236;2022-12-29T09:41:11;99868.0;;;10.39;95.19
48892;BME280;50130;52.150;5.236;2022-12-29T09:43:00;99855.0;;;10.32;95.98
48892;BME280;50130;52.150;5.236;2022-12-29T09:44:53;99855.0;;;10.45;95.95
48892;BME280;50130;52.150;5.236;2022-12-29T09:46:38;99848.0;;;10.42;96.82
48892;BME280;50130;52.150;5.236;2022-12-29T09:50:02;99856.0;;;10.37;97.31
48892;BME280;50130;52.150;5.236;2022-12-29T09:51:43;99856.0;;;10.41;97.15
48892;BME280;50130;52.150;5.236;2022-12-29T09:53:27;99872.0;;;10.38;97.41
48892;BME280;50130;52.150;5.236;2022-12-29T09:55:10;99874.0;;;10.39;98.12
48892;BME280;50130;52.150;5.236;2022-12-29T09:58:32;99880.0;;;10.44;98.09
48892;BME280;50130;52.150;5.236;2022-12-29T10:01:56;99889.0;;;10.32;98.64
48892;BME280;50130;52.150;5.236;2022-12-29T10:03:42;99884.0;;;10.35;98.3
48892;BME280;50130;52.150;5.236;2022-12-29T10:07:17;99892.0;;;10.33;98.77
48892;BME280;50130;52.150;5.236;2022-12-29T10:09:02;99887.0;;;10.25;99.59
48892;BME280;50130;52.150;5.236;2022-12-29T10:10:50;99893.0;;;10.3;98.86
48892;BME280;50130;52.150;5.236;2022-12-29T10:12:40;99905.0;;;10.37;99.25
48892;BME280;50130;52.150;5.236;2022-12-29T10:14:36;99913.0;;;10.37;99.62
48892;BME280;50130;52.150;5.236;2022-12-29T10:16:20;99922.0;;;10.26;98.72
48892;BME280;50130;52.150;5.236;2022-12-29T10:18:08;99906.0;;;10.43;98.54
48892;BME280;50130;52.150;5.236;2022-12-29T10:22:02;99903.0;;;10.44;98.73
48892;BME280;50130;52.150;5.236;2022-12-29T10:23:47;99924.0;;;10.47;99.08
48892;BME280;50130;52.150;5.236;2022-12-29T10:25:30;99917.0;;;10.46;98.3
48892;BME280;50130;52.150;5.236;2022-12-29T10:27:11;99943.0;;;10.61;97.92
48892;BME280;50130;52.150;5.236;2022-12-29T10:28:51;99942.0;;;10.66;97.42
48892;BME280;50130;52.150;5.236;2022-12-29T10:30:32;99927.0;;;10.72;97.22
48892;BME280;50130;52.150;5.236;2022-12-29T10:34:16;99933.0;;;10.72;97.34
48892;BME280;50130;52.150;5.236;2022-12-29T10:35:55;99941.0;;;10.75;96.91
48892;BME280;50130;52.150;5.236;2022-12-29T10:39:22;99947.0;;;10.7;96.84
48892;BME280;50130;52.150;5.236;2022-12-29T10:41:11;99958.0;;;10.74;97.12
48892;BME280;50130;52.150;5.236;2022-12-29T10:44:30;99946.0;;;10.7;97.42
48892;BME280;50130;52.150;5.236;2022-12-29T10:46:10;99964.0;;;10.63;97.93
48892;BME280;50130;52.150;5.236;2022-12-29T10:47:53;99961.0;;;10.66;98.07
48892;BME280;50130;52.150;5.236;2022-12-29T10:51:21;99963.0;;;10.58;98.41
48892;BME280;50130;52.150;5.236;2022-12-29T10:53:04;99970.0;;;10.66;98.67
48892;BME280;50130;52.150;5.236;2022-12-29T10:54:46;99969.0;;;10.56;98.45
48892;BME280;50130;52.150;5.236;2022-12-29T10:56:30;99985.0;;;10.62;98.99
48892;BME280;50130;52.150;5.236;2022-12-29T10:58:11;99993.0;;;10.7;98.48
48892;BME280;50130;52.150;5.236;2022-12-29T10:59:50;99990.0;;;10.68;98.39
48892;BME280;50130;52.150;5.236;2022-12-29T11:03:33;99999.0;;;10.68;98.37
48892;BME280;50130;52.150;5.236;2022-12-29T11:05:25;100005.0;;;10.7;97.31
48892;BME280;50130;52.150;5.236;2022-12-29T11:07:09;100012.0;;;10.79;97.4
48892;BME280;50130;52.150;5.236;2022-12-29T11:08:51;100013.0;;;10.78;96.85
48892;BME280;50130;52.150;5.236;2022-12-29T11:10:35;100021.0;;;10.66;97.35
48892;BME280;50130;52.150;5.236;2022-12-29T11:13:59;100033.0;;;10.67;96.88
48892;BME280;50130;52.150;5.236;2022-12-29T11:15:39;100020.0;;;10.76;96.57
48892;BME280;50130;52.150;5.236;2022-12-29T11:17:17;100025.0;;;10.83;96.48
48892;BME280;50130;52.150;5.236;2022-12-29T11:20:33;100030.0;;;10.79;96.38
48892;BME280;50130;52.150;5.236;2022-12-29T11:22:14;100032.0;;;10.84;96.16
48892;BME280;50130;52.150;5.236;2022-12-29T11:23:58;100035.0;;;10.76;96.37
48892;BME280;50130;52.150;5.236;2022-12-29T11:25:34;100032.0;;;10.91;96.03
48892;BME280;50130;52.150;5.236;2022-12-29T11:30:24;100034.0;;;11.09;95.92
48892;BME280;50130;52.150;5.236;2022-12-29T11:32:11;100046.0;;;11.03;96.49
48892;BME280;50130;52.150;5.236;2022-12-29T11:33:47;100040.0;;;11.28;95.66
48892;BME280;50130;52.150;5.236;2022-12-29T11:35:34;100053.0;;;11.42;94.69